Latest Weather Observations for Birdsville

IDQ60801

Issued at 12:35 pm EST Saturday 25 October 2014 (issued every 30 minutes, with the page automatically refreshed every 10 minutes)

About weather observations | Map of weather stations | Latest weather observations for QLD | Other Formats
Station Details ID: 038026 Name: BIRDSVILLE AIRPORT Lat: -25.90 Lon: 139.35 Height: 46.6 m
Data from the previous 72 hours. | See also: Recent months at Birdsville
Date/Time
EST
Temp
°C
App
Temp
°C
Dew
Point
Rel
Hum
%
Delta-T
°C
Wind Press
QNH
hPa
Press
MSL
hPa
Rain
since 9 am
mm
Dir
 
Spd
km/h
Gust
km/h
Spd
kts
Gust
kts
25/12:30pm 40.3 36.1 1.4 9 20.3 N 13 26 7 14 1015.2 - 0.0
25/12:00pm 39.7 34.1 0.9 9 20.0 WNW 20 28 11 15 1015.7 1015.6 0.0
25/11:30am 39.3 33.5 2.1 10 19.5 WNW 22 32 12 17 1016.1 - 0.0
25/11:00am 38.5 32.2 1.5 10 19.1 NNW 24 30 13 16 1016.4 - 0.0
25/10:30am 38.0 30.7 2.4 11 18.6 NNW 30 37 16 20 1016.7 - 0.0
25/10:00am 37.4 29.5 2.0 11 18.3 NNW 33 43 18 23 1016.8 - 0.0
25/09:30am 36.8 28.6 2.8 12 17.8 NNW 35 41 19 22 1017.0 - 0.0
25/09:00am 35.8 28.0 2.0 12 17.3 NNW 32 41 17 22 1017.0 1016.8 0.0
25/08:30am 34.2 26.4 1.9 13 16.4 NNW 32 39 17 21 1016.7 - 0.0
25/08:00am 31.8 24.5 0.0 13 15.4 N 28 32 15 17 1016.6 - 0.0
25/07:30am 29.8 23.7 0.4 15 14.1 N 22 28 12 15 1016.4 - 0.0
25/07:00am 26.8 22.4 0.5 18 12.4 N 13 15 7 8 1016.1 - 0.0
25/06:30am 24.2 20.1 -0.2 20 11.1 N 11 13 6 7 1015.8 - 0.0
25/06:00am 22.7 18.1 -1.4 20 10.6 N 13 13 7 7 1015.4 1015.3 0.0
25/05:30am 23.3 19.0 -1.6 19 11.0 N 11 13 6 7 1015.1 - 0.0
25/05:00am 25.2 21.6 0.7 20 11.5 N 9 11 5 6 1014.7 - 0.0
25/04:30am 25.4 22.1 0.1 19 11.7 N 7 11 4 6 1014.4 - 0.0
25/04:00am 25.7 21.9 -0.4 18 12.0 NNW 9 11 5 6 1014.3 - 0.0
25/03:30am 24.5 20.9 0.8 21 11.0 N 9 11 5 6 1014.1 - 0.0
25/03:00am 23.9 20.3 0.9 22 10.7 N 9 11 5 6 1014.1 1013.9 0.0
25/02:30am 26.6 22.8 -0.4 17 12.5 NNW 9 11 5 6 1014.0 - 0.0
25/02:00am 26.2 22.5 0.0 18 12.2 NNW 9 11 5 6 1014.2 - 0.0
25/01:30am 25.3 23.2 -0.7 18 11.9 CALM 0 0 0 0 1014.4 - 0.0
25/01:00am 26.3 23.1 -0.7 17 12.4 N 6 7 3 4 1014.6 - 0.0
25/12:30am 27.3 23.8 -1.6 15 13.2 N 7 7 4 4 1014.9 - 0.0
25/12:00am 27.7 24.3 -2.2 14 13.5 N 6 7 3 4 1015.1 1015.0 0.0
 
Date/Time
EST
Temp
°C
App
Temp
°C
Dew
Point
Rel
Hum
%
Delta-T
°C
Wind Press
QNH
hPa
Press
MSL
hPa
Rain
since 9 am
mm
Dir
 
Spd
km/h
Gust
km/h
Spd
kts
Gust
kts
24/11:30pm 27.7 24.1 -2.2 14 13.5 N 7 9 4 5 1015.2 - 0.0
24/11:00pm 28.4 25.0 -0.7 15 13.6 N 7 9 4 5 1015.2 - 0.0
24/10:30pm 30.1 26.7 -0.3 14 14.5 NNW 7 9 4 5 1015.3 - 0.0
24/10:00pm 30.2 26.2 -2.3 12 15.0 NNW 9 11 5 6 1015.2 - 0.0
24/09:30pm 31.6 27.9 -0.1 13 15.3 N 9 9 5 5 1015.1 - 0.0
24/09:00pm 32.3 28.9 -0.7 12 15.8 NE 7 9 4 5 1014.7 1014.5 0.0
24/08:30pm 33.5 30.2 -1.0 11 16.6 NE 6 7 3 4 1014.4 - 0.0
24/08:00pm 34.2 31.0 -0.4 11 16.9 NE 6 7 3 4 1014.2 - 0.0
24/07:30pm 35.4 32.2 -0.8 10 17.7 NE 6 7 3 4 1013.9 - 0.0
24/07:00pm 36.9 33.3 0.3 10 18.4 NE 9 13 5 7 1013.5 - 0.0
24/06:30pm 38.3 34.6 -0.1 9 19.4 NE 9 13 5 7 1013.2 - 0.0
24/06:00pm 38.7 33.9 0.2 9 19.5 ENE 15 32 8 17 1013.0 1012.8 0.0
24/05:30pm 39.0 35.0 0.4 9 19.7 NNE 11 19 6 10 1012.8 - 0.0
24/05:00pm 38.9 34.9 0.3 9 19.6 NNE 11 22 6 12 1012.7 - 0.0
24/04:30pm 39.2 35.6 0.6 9 19.8 SE 9 19 5 10 1012.7 - 0.0
24/04:00pm 39.6 35.3 0.9 9 20.0 NE 13 22 7 12 1012.7 - 0.0
24/03:30pm 39.6 34.1 0.9 9 20.0 NE 19 28 10 15 1012.9 - 0.0
24/03:00pm 39.5 36.5 0.8 9 19.9 ENE 6 17 3 9 1013.2 1013.0 0.0
24/02:30pm 39.5 34.4 0.8 9 19.9 N 17 26 9 14 1013.6 - 0.0
24/02:00pm 39.2 33.7 2.0 10 19.5 N 20 30 11 16 1013.9 - 0.0
24/01:30pm 39.7 33.5 2.4 10 19.7 NNE 24 32 13 17 1014.4 - 0.0
24/01:00pm 39.7 35.2 2.4 10 19.7 N 15 39 8 21 1014.7 - 0.0
24/12:30pm 38.8 33.5 3.1 11 19.0 N 20 37 11 20 1015.0 - 0.0
24/12:00pm 38.2 33.0 2.6 11 18.7 N 19 30 10 16 1015.3 1015.2 0.0
24/11:30am 38.2 32.5 2.6 11 18.7 NNW 22 35 12 19 1015.6 - 0.0
24/11:00am 37.5 30.7 3.3 12 18.1 N 28 35 15 19 1015.8 - 0.0
24/10:30am 37.3 30.1 3.1 12 18.0 N 30 37 16 20 1016.2 - 0.0
24/10:00am 36.3 28.2 3.5 13 17.3 N 35 43 19 23 1016.3 - 0.0
24/09:30am 35.1 26.3 3.6 14 16.5 N 39 44 21 24 1016.4 - 0.0
24/09:00am 33.4 25.7 2.3 14 15.8 N 32 41 17 22 1016.3 1016.2 0.0
24/08:30am 31.3 23.7 0.6 14 15.0 N 30 37 16 20 1016.3 - 0.0
24/08:00am 29.8 23.7 0.4 15 14.1 N 22 30 12 16 1015.9 - 0.0
24/07:30am 28.8 22.7 0.5 16 13.5 N 22 26 12 14 1015.5 - 0.0
24/07:00am 26.1 21.6 0.0 18 12.1 N 13 15 7 8 1015.5 - 0.0
24/06:30am 24.9 20.7 -1.0 18 11.7 N 11 13 6 7 1015.3 - 0.0
24/06:00am 23.8 19.5 -1.9 18 11.3 NNE 11 15 6 8 1015.1 1015.0 0.0
24/05:30am 24.3 19.6 -1.5 18 11.5 NE 13 15 7 8 1014.8 - 0.0
24/05:00am 25.3 21.7 0.7 20 11.5 W 9 15 5 8 1014.3 - 0.0
24/04:30am 24.9 20.7 -1.0 18 11.7 NNW 11 15 6 8 1013.8 - 0.0
24/04:00am 25.3 21.5 -0.7 18 11.9 N 9 11 5 6 1013.6 - 0.0
24/03:30am 24.3 20.2 -3.1 16 11.8 N 9 11 5 6 1013.6 - 0.0
24/03:00am 25.1 21.2 -1.6 17 12.0 N 9 11 5 6 1013.6 1013.4 0.0
24/02:30am 25.7 21.9 -0.4 18 12.0 N 9 11 5 6 1013.7 - 0.0
24/02:00am 26.1 22.3 -0.8 17 12.3 NNW 9 13 5 7 1013.9 - 0.0
24/01:30am 26.4 22.2 -0.6 17 12.4 N 11 15 6 8 1014.3 - 0.0
24/01:00am 27.7 23.2 -0.4 16 13.1 NNW 13 15 7 8 1014.7 - 0.0
24/12:30am 26.9 23.1 -1.0 16 12.8 NNE 9 11 5 6 1014.8 - 0.0
24/12:00am 27.6 23.7 -1.3 15 13.3 NNE 9 11 5 6 1015.0 1014.9 0.0
 
Date/Time
EST
Temp
°C
App
Temp
°C
Dew
Point
Rel
Hum
%
Delta-T
°C
Wind Press
QNH
hPa
Press
MSL
hPa
Rain
since 9 am
mm
Dir
 
Spd
km/h
Gust
km/h
Spd
kts
Gust
kts
23/11:30pm 27.6 24.2 -2.3 14 13.5 NNE 6 6 3 3 1015.2 - 0.0
23/11:00pm 28.5 24.8 -2.6 13 14.1 NNE 7 7 4 4 1015.3 - 0.0
23/10:30pm 29.2 25.6 -2.0 13 14.3 NNE 7 9 4 5 1015.4 - 0.0
23/10:00pm 29.6 25.6 0.2 15 14.1 NE 11 17 6 9 1015.3 - 0.0
23/09:30pm 30.7 27.3 -0.8 13 14.9 N 7 9 4 5 1015.1 - 0.0
23/09:00pm 31.3 27.9 -0.4 13 15.2 NNE 7 9 4 5 1014.8 1014.8 0.0
23/08:30pm 32.5 29.1 -0.5 12 15.9 NNE 7 7 4 4 1014.5 - 0.0
23/08:00pm 33.0 29.7 -0.2 12 16.2 NNE 7 9 4 5 1014.0 - 0.0
23/07:30pm 34.0 30.2 -0.6 11 16.8 NNE 9 11 5 6 1013.6 - 0.0
23/07:00pm 35.9 32.3 0.9 11 17.7 NNE 9 13 5 7 1013.2 - 0.0
23/06:30pm 37.1 32.3 0.4 10 18.5 NNE 15 20 8 11 1012.9 - 0.0
23/06:00pm 37.7 32.6 0.9 10 18.8 NNE 17 24 9 13 1012.6 1012.4 0.0
23/05:30pm 38.0 33.7 1.1 10 18.9 NNE 13 20 7 11 1012.5 - 0.0
23/05:00pm 38.1 34.6 1.2 10 19.0 ENE 9 22 5 12 1012.3 - 0.0
23/04:30pm 38.4 34.2 1.4 10 19.1 NNE 13 22 7 12 1012.3 - 0.0
23/04:00pm 38.1 33.8 1.2 10 19.0 E 13 20 7 11 1012.4 - 0.0
23/03:30pm 38.7 34.3 0.2 9 19.5 NNE 13 19 7 10 1012.5 - 0.0
23/03:00pm 38.4 31.9 0.0 9 19.4 NNE 24 26 13 14 1012.5 1012.4 0.0
23/02:30pm 38.4 33.9 0.0 9 19.4 NNW 13 24 7 13 1013.0 - 0.0
23/02:00pm 38.9 32.8 0.3 9 19.6 NE 22 30 12 16 1013.3 - 0.0
23/01:30pm 38.3 33.5 -0.1 9 19.4 N 15 30 8 16 1013.8 - 0.0
23/01:00pm 37.7 33.2 -0.6 9 19.1 NE 13 28 7 15 1014.3 - 0.0
23/12:30pm 37.7 32.6 0.9 10 18.8 NNW 17 26 9 14 1015.0 - 0.0
23/12:00pm 37.4 31.0 0.7 10 18.6 N 24 32 13 17 1015.3 1015.2 0.0
23/11:30am 36.7 30.6 0.1 10 18.3 N 22 32 12 17 1015.9 - 0.0
23/11:00am 36.3 29.3 -0.2 10 18.1 N 26 37 14 20 1016.2 - 0.0
23/10:30am 35.7 28.1 0.7 11 17.6 N 30 39 16 21 1016.6 - 0.0
23/10:00am 34.5 27.3 1.0 12 16.8 N 28 37 15 20 1016.8 - 0.0
23/09:30am 33.1 25.7 2.0 14 15.7 N 30 37 16 20 1017.0 - 0.0
23/09:00am 32.1 24.4 2.2 15 15.0 N 32 35 17 19 1017.2 1017.0 0.0
23/08:30am 30.9 23.8 3.8 18 13.9 N 30 35 16 19 1017.1 - 0.0
23/08:00am 29.2 24.2 4.6 21 12.7 N 20 24 11 13 1017.1 - 0.0
23/07:30am 27.0 22.0 4.7 24 11.4 NNE 20 24 11 13 1016.8 - 0.0
23/07:00am 24.2 20.5 4.6 28 9.8 NE 13 15 7 8 1016.7 - 0.0
23/06:30am 23.6 19.2 4.5 29 9.5 N 17 20 9 11 1016.2 - 0.0
23/06:00am 23.3 18.8 4.3 29 9.4 N 17 20 9 11 1015.9 1015.8 0.0
23/05:30am 23.3 18.6 3.3 27 9.7 NNE 17 19 9 10 1015.7 - 0.0
23/05:00am 22.8 18.8 2.8 27 9.6 NNE 13 15 7 8 1015.6 - 0.0
23/04:30am 23.8 19.2 3.7 27 9.8 NNE 17 20 9 11 1015.4 - 0.0
23/04:00am 23.4 19.0 2.8 26 9.9 NNE 15 17 8 9 1015.3 - 0.0
23/03:30am 23.9 19.1 2.7 25 10.2 NNE 17 17 9 9 1015.6 - 0.0
23/03:00am 24.7 19.6 2.8 24 10.6 NNE 19 20 10 11 1015.6 1015.5 0.0
23/02:30am 24.8 19.1 -0.4 19 11.5 NE 19 20 10 11 1015.8 - 0.0
23/02:00am 25.8 19.1 -1.1 17 12.2 NE 24 30 13 16 1015.8 - 0.0
23/01:30am 26.2 20.6 0.0 18 12.2 NE 19 22 10 12 1015.8 - 0.0
23/01:00am 25.6 21.5 -0.5 18 12.0 NNE 11 13 6 7 1016.1 - 0.0
23/12:30am 25.4 21.2 -0.6 18 11.9 NE 11 11 6 6 1016.5 - 0.0
23/12:00am 26.4 21.4 -1.4 16 12.6 NNE 15 20 8 11 1016.8 1016.6 0.0
 
Date/Time
EST
Temp
°C
App
Temp
°C
Dew
Point
Rel
Hum
%
Delta-T
°C
Wind Press
QNH
hPa
Press
MSL
hPa
Rain
since 9 am
mm
Dir
 
Spd
km/h
Gust
km/h
Spd
kts
Gust
kts
22/11:30pm 26.7 23.2 -1.2 16 12.7 N 7 7 4 4 1016.7 - 0.0
22/11:00pm 27.9 24.4 -1.1 15 13.4 N 7 9 4 5 1016.8 - 0.0
22/10:30pm 28.0 24.0 -2.0 14 13.6 N 9 11 5 6 1016.8 - 0.0
22/10:00pm 28.1 24.7 -0.9 15 13.5 N 7 9 4 5 1016.7 - 0.0
22/09:30pm 29.0 25.5 -1.2 14 14.0 N 7 9 4 5 1016.6 - 0.0
22/09:00pm 29.6 25.7 -1.7 13 14.5 NNE 9 9 5 5 1016.5 1016.4 0.0
22/08:30pm 31.2 27.4 -0.5 13 15.2 NNE 9 13 5 7 1016.1 - 0.0
22/08:00pm 32.1 28.7 -0.9 12 15.8 NNE 7 9 4 5 1015.8 - 0.0
22/07:30pm 33.3 29.2 0.1 12 16.3 NNE 11 13 6 7 1015.6 - 0.0
22/07:00pm 34.6 31.1 1.1 12 16.8 NE 9 9 5 5 1015.3 - 0.0
22/06:30pm 36.2 31.9 1.1 11 17.8 NE 13 17 7 9 1015.0 - 0.0
22/06:00pm 36.6 32.0 1.4 11 18.0 NE 15 20 8 11 1014.9 1014.8 0.0
22/05:30pm 37.0 31.8 0.4 10 18.4 NNE 17 24 9 13 1014.7 - 0.0
22/05:00pm 37.2 30.7 0.5 10 18.6 NNE 24 37 13 20 1014.7 - 0.0
22/04:30pm 37.3 31.8 0.6 10 18.6 NE 19 26 10 14 1014.7 - 0.0
22/04:00pm 37.6 33.6 0.8 10 18.7 NE 11 19 6 10 1014.8 - 0.0
22/03:30pm 37.8 31.4 1.0 10 18.8 NNE 24 33 13 18 1015.0 - 0.0
22/03:00pm 37.7 31.3 0.9 10 18.8 N 24 32 13 17 1015.2 1015.1 0.0
22/02:30pm 37.2 31.7 1.8 11 18.3 N 20 35 11 19 1015.7 - 0.0
22/02:00pm 37.5 32.6 2.1 11 18.4 NE 17 20 9 11 1016.1 - 0.0
22/01:30pm 37.4 30.8 2.0 11 18.3 N 26 37 14 20 1016.6 - 0.0
22/01:00pm 36.7 30.0 1.5 11 18.0 N 26 41 14 22 1017.1 - 0.0

Other Formats:

Comma delimited format used in spreadsheet applications
http://www.bom.gov.au/fwo/IDQ60801/IDQ60801.95482.axf

JavaScript Object Notation format (JSON) in row-major order
http://www.bom.gov.au/fwo/IDQ60801/IDQ60801.95482.json